Time,TemperatureF,DewpointF,PressureIn,WindDirection,WindDirectionDegrees,WindSpeedMPH,WindSpeedGustMPH,Humidity,HourlyPrecipIn,Conditions,Clouds,dailyrainin,SoftwareType,DateUTC
2013-07-15 00:01:00,73.3,71.2,30.22,SSE,158,0.0,3.0,93,0.00,,,0.00,Wunderground v.1.15,2013-07-15 04:01:00,
2013-07-15 00:02:00,73.3,71.2,30.22,SSE,158,0.0,3.0,93,0.00,,,0.00,Wunderground v.1.15,2013-07-15 04:02:00,
2013-07-15 00:03:00,73.3,71.2,30.22,SSE,158,0.0,3.0,93,0.00,,,0.00,Wunderground v.1.15,2013-07-15 04:03:00,
2013-07-15 00:04:00,73.2,71.1,30.22,SSE,158,0.0,3.0,93,0.00,,,0.00,Wunderground v.1.15,2013-07-15 04:04:00,
2013-07-15 00:10:00,73.1,71.0,30.22,SSE,158,0.0,3.0,93,0.00,,,0.00,Wunderground v.1.15,2013-07-15 04:10:00,
2013-07-15 00:15:00,73.0,70.9,30.22,SSE,158,0.0,3.0,93,0.00,,,0.00,Wunderground v.1.15,2013-07-15 04:15:00,
2013-07-15 00:20:00,73.0,71.2,30.22,SSE,158,0.0,3.0,94,0.00,,,0.00,Wunderground v.1.15,2013-07-15 04:20:00,
2013-07-15 00:25:00,72.9,71.1,30.22,SSE,158,0.0,3.0,94,0.00,,,0.00,Wunderground v.1.15,2013-07-15 04:25:00,
2013-07-15 00:30:00,73.0,71.2,30.22,SSE,158,0.0,3.0,94,0.00,,,0.00,Wunderground v.1.15,2013-07-15 04:30:00,
2013-07-15 00:35:00,73.0,71.2,30.22,SSE,158,0.0,3.0,94,0.00,,,0.00,Wunderground v.1.15,2013-07-15 04:35:00,
2013-07-15 00:41:00,73.1,71.3,30.22,SSE,158,0.0,3.0,94,0.00,,,0.00,Wunderground v.1.15,2013-07-15 04:41:00,
2013-07-15 00:46:00,73.2,71.4,30.22,SSE,158,0.0,3.0,94,0.00,,,0.00,Wunderground v.1.15,2013-07-15 04:46:00,
2013-07-15 00:51:00,73.2,71.4,30.22,SSE,158,0.0,3.0,94,0.00,,,0.00,Wunderground v.1.15,2013-07-15 04:51:00,
2013-07-15 00:56:00,73.3,71.5,30.22,SSE,158,1.0,3.0,94,0.00,,,0.00,Wunderground v.1.15,2013-07-15 04:56:00,
2013-07-15 01:01:00,73.4,71.6,30.22,SSE,158,1.0,3.0,94,0.00,,,0.00,Wunderground v.1.15,2013-07-15 05:01:00,
2013-07-15 01:07:00,73.5,71.4,30.22,SSE,158,1.0,3.0,93,0.00,,,0.00,Wunderground v.1.15,2013-07-15 05:07:00,
2013-07-15 01:12:00,73.6,71.8,30.22,SSE,158,1.0,3.0,94,0.00,,,0.00,Wunderground v.1.15,2013-07-15 05:12:00,
2013-07-15 01:17:00,73.7,71.5,30.22,SSE,158,0.0,3.0,93,0.00,,,0.00,Wunderground v.1.15,2013-07-15 05:17:00,
2013-07-15 01:22:00,73.7,71.5,30.22,SSE,158,0.0,3.0,93,0.00,,,0.00,Wunderground v.1.15,2013-07-15 05:22:00,
2013-07-15 01:27:00,73.6,71.4,30.21,SSE,158,1.0,3.0,93,0.00,,,0.00,Wunderground v.1.15,2013-07-15 05:27:00,
2013-07-15 01:33:00,73.6,71.4,30.21,SSE,158,1.0,3.0,93,0.00,,,0.00,Wunderground v.1.15,2013-07-15 05:33:00,
2013-07-15 01:38:00,73.5,71.4,30.21,South,188,1.0,3.0,93,0.00,,,0.00,Wunderground v.1.15,2013-07-15 05:38:00,
2013-07-15 01:43:00,73.5,71.4,30.21,South,182,1.0,3.0,93,0.00,,,0.00,Wunderground v.1.15,2013-07-15 05:43:00,
2013-07-15 01:48:00,73.5,71.4,30.22,South,182,1.0,3.0,93,0.00,,,0.00,Wunderground v.1.15,2013-07-15 05:48:00,
2013-07-15 01:53:00,73.6,71.4,30.21,South,182,0.0,3.0,93,0.00,,,0.00,Wunderground v.1.15,2013-07-15 05:53:00,
2013-07-15 01:58:00,73.5,71.4,30.21,South,182,0.0,3.0,93,0.00,,,0.00,Wunderground v.1.15,2013-07-15 05:58:00,
2013-07-15 02:03:00,73.5,71.4,30.22,South,182,0.0,3.0,93,0.00,,,0.00,Wunderground v.1.15,2013-07-15 06:03:00,
2013-07-15 02:08:00,73.4,71.3,30.22,South,182,0.0,3.0,93,0.00,,,0.00,Wunderground v.1.15,2013-07-15 06:08:00,
2013-07-15 02:13:00,73.3,71.2,30.21,South,182,0.0,3.0,93,0.00,,,0.00,Wunderground v.1.15,2013-07-15 06:13:00,
2013-07-15 02:18:00,73.3,71.2,30.22,South,182,0.0,3.0,93,0.00,,,0.00,Wunderground v.1.15,2013-07-15 06:18:00,
2013-07-15 02:23:00,73.3,71.2,30.21,South,182,1.0,3.0,93,0.00,,,0.00,Wunderground v.1.15,2013-07-15 06:23:00,
2013-07-15 02:29:00,73.3,71.5,30.22,South,182,0.0,3.0,94,0.00,,,0.00,Wunderground v.1.15,2013-07-15 06:29:00,
2013-07-15 02:34:00,73.3,71.5,30.22,South,182,0.0,3.0,94,0.00,,,0.00,Wunderground v.1.15,2013-07-15 06:34:00,
2013-07-15 02:39:00,73.3,71.5,30.22,South,182,0.0,3.0,94,0.00,,,0.00,Wunderground v.1.15,2013-07-15 06:39:00,
2013-07-15 02:44:00,73.4,71.6,30.21,South,182,0.0,3.0,94,0.00,,,0.00,Wunderground v.1.15,2013-07-15 06:44:00,
2013-07-15 02:49:00,73.4,71.6,30.21,South,182,1.0,3.0,94,0.00,,,0.00,Wunderground v.1.15,2013-07-15 06:49:00,
2013-07-15 02:55:00,73.4,71.6,30.21,South,182,0.0,3.0,94,0.00,,,0.00,Wunderground v.1.15,2013-07-15 06:55:00,
2013-07-15 03:00:00,73.4,71.6,30.21,South,182,0.0,3.0,94,0.00,,,0.00,Wunderground v.1.15,2013-07-15 07:00:00,
2013-07-15 03:05:00,73.4,71.6,30.21,South,182,0.0,3.0,94,0.00,,,0.00,Wunderground v.1.15,2013-07-15 07:05:00,
2013-07-15 03:10:00,73.3,71.5,30.21,South,182,0.0,3.0,94,0.00,,,0.00,Wunderground v.1.15,2013-07-15 07:10:00,
2013-07-15 03:15:00,73.3,71.8,30.22,South,182,0.0,3.0,95,0.00,,,0.00,Wunderground v.1.15,2013-07-15 07:15:00,
2013-07-15 03:21:00,73.3,71.5,30.21,South,182,0.0,3.0,94,0.00,,,0.00,Wunderground v.1.15,2013-07-15 07:21:00,
2013-07-15 03:26:00,73.3,71.8,30.22,South,182,0.0,3.0,95,0.00,,,0.00,Wunderground v.1.15,2013-07-15 07:26:00,
2013-07-15 03:31:00,73.3,71.5,30.22,South,182,0.0,3.0,94,0.00,,,0.00,Wunderground v.1.15,2013-07-15 07:31:00,
2013-07-15 03:36:00,73.3,71.5,30.21,South,182,0.0,3.0,94,0.00,,,0.00,Wunderground v.1.15,2013-07-15 07:36:00,
2013-07-15 03:41:00,73.4,71.6,30.22,South,182,1.0,3.0,94,0.00,,,0.00,Wunderground v.1.15,2013-07-15 07:41:00,
2013-07-15 03:47:00,73.4,71.6,30.22,South,182,0.0,3.0,94,0.00,,,0.00,Wunderground v.1.15,2013-07-15 07:47:00,
2013-07-15 03:52:00,73.4,71.6,30.22,South,182,0.0,3.0,94,0.00,,,0.00,Wunderground v.1.15,2013-07-15 07:52:00,
2013-07-15 03:57:00,73.3,71.5,30.22,South,182,0.0,3.0,94,0.00,,,0.00,Wunderground v.1.15,2013-07-15 07:57:00,
2013-07-15 04:02:00,73.3,71.5,30.22,South,182,0.0,3.0,94,0.00,,,0.00,Wunderground v.1.15,2013-07-15 08:02:00,
2013-07-15 04:07:00,73.4,71.9,30.22,South,182,0.0,3.0,95,0.00,,,0.00,Wunderground v.1.15,2013-07-15 08:07:00,
2013-07-15 04:12:00,73.4,71.9,30.22,South,182,0.0,3.0,95,0.00,,,0.00,Wunderground v.1.15,2013-07-15 08:12:00,
2013-07-15 04:17:00,73.3,71.5,30.22,South,182,0.0,3.0,94,0.00,,,0.00,Wunderground v.1.15,2013-07-15 08:17:00,
2013-07-15 04:22:00,73.3,71.5,30.22,South,182,0.0,3.0,94,0.00,,,0.00,Wunderground v.1.15,2013-07-15 08:22:00,
2013-07-15 04:27:00,73.1,71.3,30.22,South,182,1.0,3.0,94,0.00,,,0.00,Wunderground v.1.15,2013-07-15 08:27:00,
2013-07-15 04:32:00,73.1,71.6,30.22,South,182,0.0,3.0,95,0.00,,,0.00,Wunderground v.1.15,2013-07-15 08:32:00,
2013-07-15 04:37:00,73.1,71.6,30.22,South,182,0.0,3.0,95,0.00,,,0.00,Wunderground v.1.15,2013-07-15 08:37:00,
2013-07-15 04:43:00,73.1,71.6,30.22,South,182,0.0,3.0,95,0.00,,,0.00,Wunderground v.1.15,2013-07-15 08:43:00,
2013-07-15 04:48:00,73.2,71.7,30.22,South,182,0.0,3.0,95,0.00,,,0.00,Wunderground v.1.15,2013-07-15 08:48:00,
2013-07-15 04:53:00,73.2,71.7,30.22,South,182,0.0,3.0,95,0.00,,,0.00,Wunderground v.1.15,2013-07-15 08:53:00,
2013-07-15 04:58:00,73.2,71.7,30.22,South,182,0.0,3.0,95,0.00,,,0.00,Wunderground v.1.15,2013-07-15 08:58:00,
2013-07-15 05:03:00,73.1,71.3,30.22,South,182,0.0,3.0,94,0.00,,,0.00,Wunderground v.1.15,2013-07-15 09:03:00,
2013-07-15 05:09:00,73.0,71.2,30.23,South,182,0.0,3.0,94,0.00,,,0.00,Wunderground v.1.15,2013-07-15 09:09:00,
2013-07-15 05:14:00,73.0,71.2,30.23,South,182,0.0,3.0,94,0.00,,,0.00,Wunderground v.1.15,2013-07-15 09:14:00,
2013-07-15 05:19:00,73.0,71.2,30.23,South,182,0.0,3.0,94,0.00,,,0.00,Wunderground v.1.15,2013-07-15 09:19:00,
2013-07-15 05:24:00,73.0,71.2,30.23,South,182,0.0,3.0,94,0.00,,,0.00,Wunderground v.1.15,2013-07-15 09:24:00,
2013-07-15 05:29:00,72.9,71.1,30.23,South,182,0.0,3.0,94,0.00,,,0.00,Wunderground v.1.15,2013-07-15 09:29:00,
2013-07-15 05:35:00,72.9,71.1,30.23,South,182,0.0,3.0,94,0.00,,,0.00,Wunderground v.1.15,2013-07-15 09:35:00,
2013-07-15 05:40:00,72.8,71.0,30.23,South,182,0.0,3.0,94,0.00,,,0.00,Wunderground v.1.15,2013-07-15 09:40:00,
2013-07-15 05:45:00,72.7,70.6,30.23,South,182,0.0,3.0,93,0.00,,,0.00,Wunderground v.1.15,2013-07-15 09:45:00,
2013-07-15 05:50:00,72.6,70.5,30.23,South,182,0.0,3.0,93,0.00,,,0.00,Wunderground v.1.15,2013-07-15 09:50:00,
2013-07-15 05:55:00,72.5,70.4,30.23,South,182,0.0,3.0,93,0.00,,,0.00,Wunderground v.1.15,2013-07-15 09:55:00,
2013-07-15 06:00:00,72.3,70.2,30.24,South,182,0.0,0.0,93,0.00,,,0.00,Wunderground v.1.15,2013-07-15 10:00:00,
2013-07-15 06:06:00,72.2,70.1,30.24,South,182,0.0,1.0,93,0.00,,,0.00,Wunderground v.1.15,2013-07-15 10:06:00,
2013-07-15 06:11:00,72.2,70.1,30.24,South,182,0.0,0.0,93,0.00,,,0.00,Wunderground v.1.15,2013-07-15 10:11:00,
2013-07-15 06:16:00,72.1,70.0,30.24,South,182,0.0,0.0,93,0.00,,,0.00,Wunderground v.1.15,2013-07-15 10:16:00,
2013-07-15 06:21:00,72.1,70.3,30.24,South,182,0.0,1.0,94,0.00,,,0.00,Wunderground v.1.15,2013-07-15 10:21:00,
2013-07-15 06:27:00,72.0,70.2,30.24,South,182,1.0,1.0,94,0.00,,,0.00,Wunderground v.1.15,2013-07-15 10:27:00,
2013-07-15 06:32:00,72.1,70.3,30.24,South,182,1.0,1.0,94,0.00,,,0.00,Wunderground v.1.15,2013-07-15 10:32:00,
2013-07-15 06:38:00,72.2,70.7,30.24,South,182,1.0,1.0,95,0.00,,,0.00,Wunderground v.1.15,2013-07-15 10:38:00,
2013-07-15 06:43:00,72.2,70.7,30.24,South,182,1.0,1.0,95,0.00,,,0.00,Wunderground v.1.15,2013-07-15 10:43:00,
2013-07-15 06:49:00,72.3,71.1,30.25,South,182,1.0,2.0,96,0.00,,,0.00,Wunderground v.1.15,2013-07-15 10:49:00,
2013-07-15 06:54:00,72.6,71.4,30.25,South,182,1.0,2.0,96,0.00,,,0.00,Wunderground v.1.15,2013-07-15 10:54:00,
2013-07-15 06:59:00,72.8,71.6,30.25,South,182,1.0,2.0,96,0.00,,,0.00,Wunderground v.1.15,2013-07-15 10:59:00,
2013-07-15 07:04:00,73.1,71.9,30.25,South,182,1.0,2.0,96,0.00,,,0.00,Wunderground v.1.15,2013-07-15 11:04:00,
2013-07-15 07:09:00,73.2,71.7,30.25,South,182,1.0,2.0,95,0.00,,,0.00,Wunderground v.1.15,2013-07-15 11:09:00,
2013-07-15 07:15:00,73.5,72.0,30.25,South,182,1.0,2.0,95,0.00,,,0.00,Wunderground v.1.15,2013-07-15 11:15:00,
2013-07-15 07:20:00,73.8,72.0,30.25,South,182,1.0,1.0,94,0.00,,,0.00,Wunderground v.1.15,2013-07-15 11:20:00,
2013-07-15 07:25:00,74.1,72.3,30.25,South,182,1.0,1.0,94,0.00,,,0.00,Wunderground v.1.15,2013-07-15 11:25:00,
2013-07-15 07:30:00,74.4,72.6,30.25,South,182,1.0,1.0,94,0.00,,,0.00,Wunderground v.1.15,2013-07-15 11:30:00,
2013-07-15 07:35:00,74.8,73.0,30.25,South,182,0.0,1.0,94,0.00,,,0.00,Wunderground v.1.15,2013-07-15 11:35:00,
2013-07-15 07:41:00,75.2,73.0,30.26,South,182,0.0,2.0,93,0.00,,,0.00,Wunderground v.1.15,2013-07-15 11:41:00,
2013-07-15 07:46:00,75.3,73.1,30.25,South,182,1.0,2.0,93,0.00,,,0.00,Wunderground v.1.15,2013-07-15 11:46:00,
2013-07-15 07:51:00,75.4,73.2,30.26,South,182,1.0,1.0,93,0.00,,,0.00,Wunderground v.1.15,2013-07-15 11:51:00,
2013-07-15 07:56:00,75.5,73.3,30.26,South,182,1.0,2.0,93,0.00,,,0.00,Wunderground v.1.15,2013-07-15 11:56:00,
2013-07-15 08:01:00,75.6,73.4,30.25,South,182,1.0,1.0,93,0.00,,,0.00,Wunderground v.1.15,2013-07-15 12:01:00,
2013-07-15 08:06:00,75.7,73.5,30.26,South,182,2.0,2.0,93,0.00,,,0.00,Wunderground v.1.15,2013-07-15 12:06:00,
2013-07-15 08:12:00,75.9,73.7,30.26,South,182,1.0,1.0,93,0.00,,,0.00,Wunderground v.1.15,2013-07-15 12:12:00,
2013-07-15 08:18:00,76.1,73.3,30.26,South,182,0.0,1.0,91,0.00,,,0.00,Wunderground v.1.15,2013-07-15 12:18:00,
2013-07-15 08:23:00,76.3,73.5,30.26,West,281,0.0,1.0,91,0.00,,,0.00,Wunderground v.1.15,2013-07-15 12:23:00,
2013-07-15 08:28:00,76.7,73.9,30.26,West,281,0.0,1.0,91,0.00,,,0.00,Wunderground v.1.15,2013-07-15 12:28:00,
2013-07-15 08:34:00,76.8,74.0,30.26,West,281,0.0,1.0,91,0.00,,,0.00,Wunderground v.1.15,2013-07-15 12:34:00,
2013-07-15 08:39:00,76.9,73.7,30.26,WNW,286,0.0,1.0,90,0.00,,,0.00,Wunderground v.1.15,2013-07-15 12:39:00,
2013-07-15 08:44:00,77.0,73.8,30.26,WNW,286,0.0,1.0,90,0.00,,,0.00,Wunderground v.1.15,2013-07-15 12:44:00,
2013-07-15 08:49:00,77.2,73.7,30.26,WNW,286,0.0,1.0,89,0.00,,,0.00,Wunderground v.1.15,2013-07-15 12:49:00,
2013-07-15 08:54:00,77.4,73.9,30.26,WNW,286,0.0,1.0,89,0.00,,,0.00,Wunderground v.1.15,2013-07-15 12:54:00,
2013-07-15 09:00:00,77.6,73.8,30.26,WNW,303,0.0,2.0,88,0.00,,,0.00,Wunderground v.1.15,2013-07-15 13:00:00,
2013-07-15 09:05:00,77.9,74.4,30.26,WNW,303,0.0,1.0,89,0.00,,,0.00,Wunderground v.1.15,2013-07-15 13:05:00,
2013-07-15 09:10:00,78.1,73.9,30.26,West,271,1.0,3.0,87,0.00,,,0.00,Wunderground v.1.15,2013-07-15 13:10:00,
2013-07-15 09:15:00,78.2,74.4,30.26,West,271,1.0,1.0,88,0.00,,,0.00,Wunderground v.1.15,2013-07-15 13:15:00,
2013-07-15 09:21:00,78.5,74.0,30.26,WSW,252,1.0,2.0,86,0.00,,,0.00,Wunderground v.1.15,2013-07-15 13:21:00,
2013-07-15 09:27:00,78.7,74.2,30.26,WNW,296,1.0,2.0,86,0.00,,,0.00,Wunderground v.1.15,2013-07-15 13:27:00,
2013-07-15 09:32:00,78.9,74.0,30.26,WNW,297,1.0,1.0,85,0.00,,,0.00,Wunderground v.1.15,2013-07-15 13:32:00,
2013-07-15 09:37:00,78.9,74.0,30.26,NW,325,1.0,2.0,85,0.00,,,0.00,Wunderground v.1.15,2013-07-15 13:37:00,
2013-07-15 09:42:00,79.0,73.4,30.26,NW,308,1.0,1.0,83,0.00,,,0.00,Wunderground v.1.15,2013-07-15 13:42:00,
2013-07-15 09:47:00,79.0,73.7,30.26,WNW,289,1.0,1.0,84,0.00,,,0.00,Wunderground v.1.15,2013-07-15 13:47:00,
2013-07-15 09:53:00,79.1,74.2,30.26,West,265,1.0,1.0,85,0.00,,,0.00,Wunderground v.1.15,2013-07-15 13:53:00,
2013-07-15 09:58:00,79.4,74.1,30.25,NNW,331,1.0,1.0,84,0.00,,,0.00,Wunderground v.1.15,2013-07-15 13:58:00,
2013-07-15 10:03:00,79.6,73.6,30.25,NNW,327,1.0,2.0,82,0.00,,,0.00,Wunderground v.1.15,2013-07-15 14:03:00,
2013-07-15 10:08:00,80.5,74.5,30.25,NW,306,1.0,2.0,82,0.00,,,0.00,Wunderground v.1.15,2013-07-15 14:08:00,
2013-07-15 10:13:00,80.8,74.0,30.25,WNW,302,1.0,1.0,80,0.00,,,0.00,Wunderground v.1.15,2013-07-15 14:13:00,
2013-07-15 10:19:00,80.9,74.9,30.25,NNW,333,1.0,3.0,82,0.00,,,0.00,Wunderground v.1.15,2013-07-15 14:19:00,
2013-07-15 10:24:00,81.3,74.5,30.25,NNE,15,2.0,2.0,80,0.00,,,0.00,Wunderground v.1.15,2013-07-15 14:24:00,
2013-07-15 10:29:00,81.7,75.3,30.25,NW,311,2.0,3.0,81,0.00,,,0.00,Wunderground v.1.15,2013-07-15 14:29:00,
2013-07-15 10:34:00,82.1,75.7,30.25,NW,313,2.0,3.0,81,0.00,,,0.00,Wunderground v.1.15,2013-07-15 14:34:00,
2013-07-15 10:39:00,82.4,75.6,30.25,NE,34,2.0,3.0,80,0.00,,,0.00,Wunderground v.1.15,2013-07-15 14:39:00,
2013-07-15 10:43:00,82.4,74.8,30.25,WNW,286,2.0,4.0,78,0.00,,,0.00,Wunderground v.1.15,2013-07-15 14:43:00,
2013-07-15 10:48:00,82.3,75.5,30.25,West,277,2.0,5.0,80,0.00,,,0.00,Wunderground v.1.15,2013-07-15 14:48:00,
2013-07-15 10:53:00,82.6,76.5,30.25,West,273,1.0,3.0,82,0.00,,,0.00,Wunderground v.1.15,2013-07-15 14:53:00,
2013-07-15 10:58:00,82.8,75.2,30.25,NNW,348,1.0,3.0,78,0.00,,,0.00,Wunderground v.1.15,2013-07-15 14:58:00,
2013-07-15 11:03:00,83.0,75.8,30.25,NW,315,2.0,3.0,79,0.00,,,0.00,Wunderground v.1.15,2013-07-15 15:03:00,
2013-07-15 11:09:00,83.1,75.9,30.25,NNE,20,3.0,6.0,79,0.00,,,0.00,Wunderground v.1.15,2013-07-15 15:09:00,
2013-07-15 11:15:00,82.4,75.2,30.25,NNW,344,4.0,6.0,79,0.00,,,0.00,Wunderground v.1.15,2013-07-15 15:15:00,
2013-07-15 11:20:00,82.6,75.0,30.25,NW,321,3.0,3.0,78,0.00,,,0.00,Wunderground v.1.15,2013-07-15 15:20:00,
2013-07-15 11:25:00,82.7,75.1,30.25,West,275,2.0,4.0,78,0.00,,,0.00,Wunderground v.1.15,2013-07-15 15:25:00,
2013-07-15 11:30:00,82.9,75.3,30.25,NW,316,2.0,2.0,78,0.00,,,0.00,Wunderground v.1.15,2013-07-15 15:30:00,
2013-07-15 11:35:00,83.1,75.5,30.25,NE,36,2.0,3.0,78,0.00,,,0.00,Wunderground v.1.15,2013-07-15 15:35:00,
2013-07-15 11:40:00,83.1,75.1,30.25,NNE,27,3.0,3.0,77,0.00,,,0.00,Wunderground v.1.15,2013-07-15 15:40:00,
2013-07-15 11:45:00,82.9,75.7,30.25,North,9,2.0,3.0,79,0.00,,,0.00,Wunderground v.1.15,2013-07-15 15:45:00,
2013-07-15 11:51:00,83.1,75.9,30.25,WSW,244,2.0,2.0,79,0.00,,,0.00,Wunderground v.1.15,2013-07-15 15:51:00,
2013-07-15 11:56:00,82.1,74.9,30.25,NNE,15,3.0,6.0,79,0.00,,,0.00,Wunderground v.1.15,2013-07-15 15:56:00,
2013-07-15 12:01:00,81.4,74.6,30.25,NNE,13,3.0,5.0,80,0.00,,,0.00,Wunderground v.1.15,2013-07-15 16:01:00,
2013-07-15 12:07:00,81.0,74.6,30.25,North,360,3.0,5.0,81,0.00,,,0.00,Wunderground v.1.15,2013-07-15 16:07:00,
2013-07-15 12:12:00,81.0,75.0,30.25,North,360,1.0,2.0,82,0.00,,,0.00,Wunderground v.1.15,2013-07-15 16:12:00,
2013-07-15 12:17:00,81.1,74.7,30.25,NNW,331,1.0,2.0,81,0.00,,,0.00,Wunderground v.1.15,2013-07-15 16:17:00,
2013-07-15 12:23:00,82.1,76.8,30.25,NW,309,1.0,1.0,84,0.00,,,0.00,Wunderground v.1.15,2013-07-15 16:23:00,
2013-07-15 12:28:00,83.4,75.8,30.25,NNE,15,2.0,6.0,78,0.00,,,0.00,Wunderground v.1.15,2013-07-15 16:28:00,
2013-07-15 12:34:00,83.8,75.4,30.25,NNW,344,3.0,5.0,76,0.00,,,0.00,Wunderground v.1.15,2013-07-15 16:34:00,
2013-07-15 12:40:00,83.9,76.7,30.24,NNW,343,3.0,4.0,79,0.00,,,0.00,Wunderground v.1.15,2013-07-15 16:40:00,
2013-07-15 12:45:00,84.3,76.3,30.24,North,351,3.0,7.0,77,0.00,,,0.00,Wunderground v.1.15,2013-07-15 16:45:00,
2013-07-15 12:50:00,84.3,75.9,30.24,West,269,2.0,3.0,76,0.00,,,0.00,Wunderground v.1.15,2013-07-15 16:50:00,
2013-07-15 12:57:00,84.4,76.0,30.24,NNE,12,3.0,5.0,76,0.00,,,0.00,Wunderground v.1.15,2013-07-15 16:57:00,
2013-07-15 13:02:00,84.7,76.3,30.24,NNW,341,3.0,3.0,76,0.00,,,0.00,Wunderground v.1.15,2013-07-15 17:02:00,
2013-07-15 13:07:00,85.1,75.5,30.24,WNW,293,2.0,4.0,73,0.00,,,0.00,Wunderground v.1.15,2013-07-15 17:07:00,
2013-07-15 13:12:00,85.5,75.9,30.24,NW,307,2.0,2.0,73,0.00,,,0.00,Wunderground v.1.15,2013-07-15 17:12:00,
2013-07-15 13:17:00,85.1,75.5,30.23,North,350,2.0,4.0,73,0.00,,,0.00,Wunderground v.1.15,2013-07-15 17:17:00,
2013-07-15 13:22:00,84.4,75.6,30.24,WNW,291,2.0,2.0,75,0.00,,,0.00,Wunderground v.1.15,2013-07-15 17:22:00,
2013-07-15 13:27:00,85.5,77.1,30.23,NNE,12,2.0,6.0,76,0.00,,,0.00,Wunderground v.1.15,2013-07-15 17:27:00,
2013-07-15 13:32:00,86.1,76.4,30.23,NNW,346,3.0,7.0,73,0.00,,,0.00,Wunderground v.1.15,2013-07-15 17:32:00,
2013-07-15 13:37:00,86.4,75.5,30.23,NNW,338,4.0,7.0,70,0.00,,,0.00,Wunderground v.1.15,2013-07-15 17:37:00,
2013-07-15 13:42:00,85.7,74.8,30.23,NW,317,2.0,3.0,70,0.00,,,0.00,Wunderground v.1.15,2013-07-15 17:42:00,
2013-07-15 13:48:00,86.2,76.5,30.23,NNW,333,2.0,3.0,73,0.00,,,0.00,Wunderground v.1.15,2013-07-15 17:48:00,
2013-07-15 13:53:00,86.4,75.0,30.23,NNW,328,2.0,5.0,69,0.00,,,0.00,Wunderground v.1.15,2013-07-15 17:53:00,
2013-07-15 13:58:00,85.6,73.4,30.23,NNW,336,3.0,8.0,67,0.00,,,0.00,Wunderground v.1.15,2013-07-15 17:58:00,
2013-07-15 14:03:00,86.2,75.7,30.23,NNW,335,3.0,3.0,71,0.00,,,0.00,Wunderground v.1.15,2013-07-15 18:03:00,
2013-07-15 14:08:00,87.0,74.3,30.23,North,350,2.0,5.0,66,0.00,,,0.00,Wunderground v.1.15,2013-07-15 18:08:00,
2013-07-15 14:13:00,86.3,74.5,30.23,NNE,16,3.0,7.0,68,0.00,,,0.00,Wunderground v.1.15,2013-07-15 18:13:00,
2013-07-15 14:18:00,86.6,73.9,30.22,NNE,14,4.0,7.0,66,0.00,,,0.00,Wunderground v.1.15,2013-07-15 18:18:00,
2013-07-15 14:23:00,87.0,74.3,30.22,NNE,20,4.0,8.0,66,0.00,,,0.00,Wunderground v.1.15,2013-07-15 18:23:00,
2013-07-15 14:28:00,86.7,73.5,30.22,SW,234,3.0,8.0,65,0.00,,,0.00,Wunderground v.1.15,2013-07-15 18:28:00,
2013-07-15 14:34:00,86.7,73.5,30.22,NNW,344,2.0,5.0,65,0.00,,,0.00,Wunderground v.1.15,2013-07-15 18:34:00,
2013-07-15 14:39:00,87.2,74.0,30.22,NNW,331,3.0,3.0,65,0.00,,,0.00,Wunderground v.1.15,2013-07-15 18:39:00,
2013-07-15 14:44:00,87.4,73.7,30.22,NW,315,3.0,4.0,64,0.00,,,0.00,Wunderground v.1.15,2013-07-15 18:44:00,
2013-07-15 14:49:00,87.5,74.3,30.22,NW,312,3.0,3.0,65,0.00,,,0.00,Wunderground v.1.15,2013-07-15 18:49:00,
2013-07-15 14:54:00,87.3,73.2,30.22,West,263,3.0,7.0,63,0.00,,,0.00,Wunderground v.1.15,2013-07-15 18:54:00,
2013-07-15 14:59:00,86.4,71.8,30.22,NW,317,4.0,4.0,62,0.00,,,0.00,Wunderground v.1.15,2013-07-15 18:59:00,
2013-07-15 15:04:00,86.7,71.6,30.21,NW,316,4.0,8.0,61,0.00,,,0.00,Wunderground v.1.15,2013-07-15 19:04:00,
2013-07-15 15:10:00,87.1,73.0,30.21,NW,323,3.0,5.0,63,0.00,,,0.00,Wunderground v.1.15,2013-07-15 19:10:00,
2013-07-15 15:15:00,87.4,72.8,30.21,West,268,3.0,5.0,62,0.00,,,0.00,Wunderground v.1.15,2013-07-15 19:15:00,
2013-07-15 15:21:00,87.5,73.3,30.21,North,350,3.0,5.0,63,0.00,,,0.00,Wunderground v.1.15,2013-07-15 19:21:00,
2013-07-15 15:26:00,87.4,72.8,30.21,NNW,344,3.0,5.0,62,0.00,,,0.00,Wunderground v.1.15,2013-07-15 19:26:00,
2013-07-15 15:31:00,87.3,74.5,30.21,NNW,342,3.0,3.0,66,0.00,,,0.00,Wunderground v.1.15,2013-07-15 19:31:00,
2013-07-15 15:36:00,87.4,73.3,30.21,NNE,24,3.0,6.0,63,0.00,,,0.00,Wunderground v.1.15,2013-07-15 19:36:00,
2013-07-15 15:42:00,87.5,73.3,30.21,NNW,334,3.0,3.0,63,0.00,,,0.00,Wunderground v.1.15,2013-07-15 19:42:00,
2013-07-15 15:46:00,87.6,73.0,30.21,West,279,3.0,5.0,62,0.00,,,0.00,Wunderground v.1.15,2013-07-15 19:46:00,
2013-07-15 15:52:00,87.5,72.4,30.21,NNE,13,3.0,3.0,61,0.00,,,0.00,Wunderground v.1.15,2013-07-15 19:52:00,
2013-07-15 15:57:00,87.4,72.8,30.21,NW,320,3.0,5.0,62,0.00,,,0.00,Wunderground v.1.15,2013-07-15 19:57:00,
2013-07-15 16:02:00,87.3,72.2,30.21,NW,313,3.0,3.0,61,0.00,,,0.00,Wunderground v.1.15,2013-07-15 20:02:00,
2013-07-15 16:07:00,86.9,71.8,30.21,NNW,329,3.0,5.0,61,0.00,,,0.00,Wunderground v.1.15,2013-07-15 20:07:00,
2013-07-15 16:12:00,87.0,72.4,30.21,NNW,338,3.0,3.0,62,0.00,,,0.00,Wunderground v.1.15,2013-07-15 20:12:00,
2013-07-15 16:17:00,87.0,73.3,30.21,NNW,338,3.0,5.0,64,0.00,,,0.00,Wunderground v.1.15,2013-07-15 20:17:00,
2013-07-15 16:22:00,86.7,72.6,30.21,North,350,3.0,5.0,63,0.00,,,0.00,Wunderground v.1.15,2013-07-15 20:22:00,
2013-07-15 16:28:00,86.5,73.3,30.21,NNW,340,3.0,5.0,65,0.00,,,0.00,Wunderground v.1.15,2013-07-15 20:28:00,
2013-07-15 16:33:00,86.6,72.5,30.21,NW,316,3.0,4.0,63,0.00,,,0.00,Wunderground v.1.15,2013-07-15 20:33:00,
2013-07-15 16:38:00,86.5,73.3,30.21,NW,325,3.0,8.0,65,0.00,,,0.00,Wunderground v.1.15,2013-07-15 20:38:00,
2013-07-15 16:43:00,86.2,72.6,30.20,WNW,298,3.0,3.0,64,0.00,,,0.00,Wunderground v.1.15,2013-07-15 20:43:00,
2013-07-15 16:48:00,86.4,73.2,30.20,NNW,334,3.0,6.0,65,0.00,,,0.00,Wunderground v.1.15,2013-07-15 20:48:00,
2013-07-15 16:54:00,86.3,72.7,30.20,NW,311,4.0,4.0,64,0.00,,,0.00,Wunderground v.1.15,2013-07-15 20:54:00,
2013-07-15 17:00:00,86.2,72.1,30.20,West,263,3.0,3.0,63,0.00,,,0.00,Wunderground v.1.15,2013-07-15 21:00:00,
2013-07-15 17:05:00,86.3,72.2,30.20,WSW,248,3.0,5.0,63,0.00,,,0.00,Wunderground v.1.15,2013-07-15 21:05:00,
2013-07-15 17:11:00,86.5,72.4,30.20,NW,324,3.0,3.0,63,0.00,,,0.00,Wunderground v.1.15,2013-07-15 21:11:00,
2013-07-15 17:16:00,86.1,72.5,30.20,West,267,2.0,3.0,64,0.00,,,0.00,Wunderground v.1.15,2013-07-15 21:16:00,
2013-07-15 17:21:00,86.2,72.6,30.20,NW,309,3.0,3.0,64,0.00,,,0.00,Wunderground v.1.15,2013-07-15 21:21:00,
2013-07-15 17:26:00,85.9,72.3,30.20,North,5,3.0,5.0,64,0.00,,,0.00,Wunderground v.1.15,2013-07-15 21:26:00,
2013-07-15 17:32:00,85.7,71.7,30.20,NE,34,3.0,5.0,63,0.00,,,0.00,Wunderground v.1.15,2013-07-15 21:32:00,
2013-07-15 17:38:00,85.4,71.8,30.20,North,360,3.0,7.0,64,0.00,,,0.00,Wunderground v.1.15,2013-07-15 21:38:00,
2013-07-15 17:44:00,85.0,71.5,30.20,North,360,3.0,3.0,64,0.00,,,0.00,Wunderground v.1.15,2013-07-15 21:44:00,
2013-07-15 17:49:00,85.0,70.0,30.20,NW,325,3.0,3.0,61,0.00,,,0.00,Wunderground v.1.15,2013-07-15 21:49:00,
2013-07-15 17:54:00,85.0,70.5,30.20,NW,313,3.0,4.0,62,0.00,,,0.00,Wunderground v.1.15,2013-07-15 21:54:00,
2013-07-15 17:59:00,84.8,68.9,30.20,NNW,338,2.0,2.0,59,0.00,,,0.00,Wunderground v.1.15,2013-07-15 21:59:00,
2013-07-15 18:04:00,84.8,68.4,30.20,North,350,2.0,4.0,58,0.00,,,0.00,Wunderground v.1.15,2013-07-15 22:04:00,
2013-07-15 18:10:00,84.7,67.3,30.20,NW,304,2.0,4.0,56,0.00,,,0.00,Wunderground v.1.15,2013-07-15 22:10:00,
2013-07-15 18:16:00,85.0,68.6,30.20,NW,306,2.0,4.0,58,0.00,,,0.00,Wunderground v.1.15,2013-07-15 22:16:00,
2013-07-15 18:21:00,84.8,67.9,30.19,NNW,337,2.0,2.0,57,0.00,,,0.00,Wunderground v.1.15,2013-07-15 22:21:00,
2013-07-15 18:26:00,84.8,67.9,30.19,North,355,2.0,4.0,57,0.00,,,0.00,Wunderground v.1.15,2013-07-15 22:26:00,
2013-07-15 18:31:00,84.6,66.7,30.19,North,355,2.0,2.0,55,0.00,,,0.00,Wunderground v.1.15,2013-07-15 22:31:00,
2013-07-15 18:36:00,84.5,66.6,30.19,North,5,2.0,2.0,55,0.00,,,0.00,Wunderground v.1.15,2013-07-15 22:36:00,
2013-07-15 18:41:00,84.4,67.5,30.19,North,5,2.0,6.0,57,0.00,,,0.00,Wunderground v.1.15,2013-07-15 22:41:00,
2013-07-15 18:48:00,84.1,67.7,30.19,North,5,3.0,6.0,58,0.00,,,0.00,Wunderground v.1.15,2013-07-15 22:48:00,
2013-07-15 18:53:00,84.0,67.1,30.19,NNW,331,2.0,3.0,57,0.00,,,0.00,Wunderground v.1.15,2013-07-15 22:53:00,
2013-07-15 19:00:00,83.7,67.8,30.19,NW,306,1.0,1.0,59,0.00,,,0.00,Wunderground v.1.15,2013-07-15 23:00:00,
2013-07-15 19:05:00,83.5,68.2,30.19,NNW,334,1.0,2.0,60,0.00,,,0.00,Wunderground v.1.15,2013-07-15 23:05:00,
2013-07-15 19:10:00,83.3,68.0,30.19,NNW,327,1.0,1.0,60,0.00,,,0.00,Wunderground v.1.15,2013-07-15 23:10:00,
2013-07-15 19:15:00,83.2,67.9,30.19,NNW,334,1.0,2.0,60,0.00,,,0.00,Wunderground v.1.15,2013-07-15 23:15:00,
2013-07-15 19:21:00,82.8,67.5,30.19,NNW,328,1.0,1.0,60,0.00,,,0.00,Wunderground v.1.15,2013-07-15 23:21:00,
2013-07-15 19:26:00,82.4,67.6,30.19,NW,323,1.0,2.0,61,0.00,,,0.00,Wunderground v.1.15,2013-07-15 23:26:00,
2013-07-15 19:32:00,82.1,68.7,30.19,NW,315,1.0,1.0,64,0.00,,,0.00,Wunderground v.1.15,2013-07-15 23:32:00,
2013-07-15 19:38:00,81.8,68.4,30.19,West,266,0.0,2.0,64,0.00,,,0.00,Wunderground v.1.15,2013-07-15 23:38:00,
2013-07-15 19:43:00,81.6,69.1,30.19,West,266,0.0,1.0,66,0.00,,,0.00,Wunderground v.1.15,2013-07-15 23:43:00,
2013-07-15 19:48:00,81.3,69.7,30.19,West,266,0.0,1.0,68,0.00,,,0.00,Wunderground v.1.15,2013-07-15 23:48:00,
2013-07-15 19:53:00,81.1,68.7,30.19,West,281,0.0,1.0,66,0.00,,,0.00,Wunderground v.1.15,2013-07-15 23:53:00,
2013-07-15 19:59:00,81.0,69.4,30.19,NW,305,0.0,1.0,68,0.00,,,0.00,Wunderground v.1.15,2013-07-15 23:59:00,
2013-07-15 20:04:00,80.7,69.6,30.19,NW,305,0.0,1.0,69,0.00,,,0.00,Wunderground v.1.15,2013-07-16 00:04:00,
2013-07-15 20:09:00,80.3,68.3,30.19,NW,305,0.0,1.0,67,0.00,,,0.00,Wunderground v.1.15,2013-07-16 00:09:00,
2013-07-15 20:14:00,79.7,69.0,30.19,NW,305,0.0,1.0,70,0.00,,,0.00,Wunderground v.1.15,2013-07-16 00:14:00,
2013-07-15 20:20:00,78.8,70.6,30.19,NW,305,0.0,1.0,76,0.00,,,0.00,Wunderground v.1.15,2013-07-16 00:20:00,
2013-07-15 20:25:00,77.9,70.5,30.19,NW,305,0.0,1.0,78,0.00,,,0.00,Wunderground v.1.15,2013-07-16 00:25:00,
2013-07-15 20:30:00,77.2,70.2,30.19,WSW,241,1.0,1.0,79,0.00,,,0.00,Wunderground v.1.15,2013-07-16 00:30:00,
2013-07-15 20:35:00,76.7,69.7,30.19,WSW,241,1.0,1.0,79,0.00,,,0.00,Wunderground v.1.15,2013-07-16 00:35:00,
2013-07-15 20:40:00,76.4,69.4,30.19,WSW,241,1.0,1.0,79,0.00,,,0.00,Wunderground v.1.15,2013-07-16 00:40:00,
2013-07-15 20:45:00,76.1,70.2,30.19,WSW,241,1.0,1.0,82,0.00,,,0.00,Wunderground v.1.15,2013-07-16 00:45:00,
2013-07-15 20:51:00,75.2,70.0,30.19,WSW,241,1.0,1.0,84,0.00,,,0.00,Wunderground v.1.15,2013-07-16 00:51:00,
2013-07-15 20:56:00,74.7,70.2,30.19,WSW,241,1.0,2.0,86,0.00,,,0.00,Wunderground v.1.15,2013-07-16 00:56:00,
2013-07-15 21:01:00,74.3,69.5,30.19,WSW,241,1.0,1.0,85,0.00,,,0.00,Wunderground v.1.15,2013-07-16 01:01:00,
2013-07-15 21:06:00,73.8,69.3,30.19,WSW,241,1.0,2.0,86,0.00,,,0.00,Wunderground v.1.15,2013-07-16 01:06:00,
2013-07-15 21:11:00,73.5,69.7,30.19,WSW,241,1.0,1.0,88,0.00,,,0.00,Wunderground v.1.15,2013-07-16 01:11:00,
2013-07-15 21:16:00,73.2,69.1,30.19,WSW,241,1.0,2.0,87,0.00,,,0.00,Wunderground v.1.15,2013-07-16 01:16:00,
2013-07-15 21:21:00,72.9,69.1,30.19,WSW,241,1.0,1.0,88,0.00,,,0.00,Wunderground v.1.15,2013-07-16 01:21:00,
2013-07-15 21:27:00,72.7,69.6,30.19,WSW,241,1.0,2.0,90,0.00,,,0.00,Wunderground v.1.15,2013-07-16 01:27:00,
2013-07-15 21:32:00,72.5,69.4,30.19,WSW,241,1.0,1.0,90,0.00,,,0.00,Wunderground v.1.15,2013-07-16 01:32:00,
2013-07-15 21:37:00,72.2,69.1,30.20,WSW,241,1.0,1.0,90,0.00,,,0.00,Wunderground v.1.15,2013-07-16 01:37:00,
2013-07-15 21:42:00,72.1,69.0,30.20,WSW,241,1.0,1.0,90,0.00,,,0.00,Wunderground v.1.15,2013-07-16 01:42:00,
2013-07-15 21:47:00,72.0,69.2,30.20,SW,214,1.0,2.0,91,0.00,,,0.00,Wunderground v.1.15,2013-07-16 01:47:00,
2013-07-15 21:52:00,71.5,68.4,30.20,SSW,213,1.0,1.0,90,0.00,,,0.00,Wunderground v.1.15,2013-07-16 01:52:00,
2013-07-15 21:57:00,71.3,68.5,30.20,SSW,213,1.0,2.0,91,0.00,,,0.00,Wunderground v.1.15,2013-07-16 01:57:00,
2013-07-15 22:02:00,71.0,68.2,30.20,SSW,213,1.0,1.0,91,0.00,,,0.00,Wunderground v.1.15,2013-07-16 02:02:00,
2013-07-15 22:09:00,70.8,68.0,30.20,SSW,213,1.0,1.0,91,0.00,,,0.00,Wunderground v.1.15,2013-07-16 02:09:00,
2013-07-15 22:14:00,70.6,68.2,30.20,SSW,213,1.0,1.0,92,0.00,,,0.00,Wunderground v.1.15,2013-07-16 02:14:00,
2013-07-15 22:19:00,70.5,68.1,30.20,SSW,213,1.0,1.0,92,0.00,,,0.00,Wunderground v.1.15,2013-07-16 02:19:00,
2013-07-15 22:24:00,70.3,68.2,30.21,SSW,213,1.0,1.0,93,0.00,,,0.00,Wunderground v.1.15,2013-07-16 02:24:00,
2013-07-15 22:29:00,70.1,68.0,30.21,SSW,213,1.0,1.0,93,0.00,,,0.00,Wunderground v.1.15,2013-07-16 02:29:00,
2013-07-15 22:34:00,69.9,67.8,30.21,SSW,213,1.0,1.0,93,0.00,,,0.00,Wunderground v.1.15,2013-07-16 02:34:00,
2013-07-15 22:39:00,69.9,67.8,30.21,SSW,213,1.0,1.0,93,0.00,,,0.00,Wunderground v.1.15,2013-07-16 02:39:00,
2013-07-15 22:44:00,69.8,67.7,30.20,SSW,213,1.0,1.0,93,0.00,,,0.00,Wunderground v.1.15,2013-07-16 02:44:00,
2013-07-15 22:49:00,69.9,67.8,30.21,SSW,213,1.0,1.0,93,0.00,,,0.00,Wunderground v.1.15,2013-07-16 02:49:00,
2013-07-15 22:54:00,69.9,67.8,30.20,SSW,213,1.0,1.0,93,0.00,,,0.00,Wunderground v.1.15,2013-07-16 02:54:00,
2013-07-15 22:59:00,69.8,67.7,30.20,SSW,213,1.0,1.0,93,0.00,,,0.00,Wunderground v.1.15,2013-07-16 02:59:00,
2013-07-15 23:05:00,69.7,67.9,30.20,SSW,213,1.0,2.0,94,0.00,,,0.00,Wunderground v.1.15,2013-07-16 03:05:00,
2013-07-15 23:10:00,69.6,67.8,30.20,SSW,213,1.0,1.0,94,0.00,,,0.00,Wunderground v.1.15,2013-07-16 03:10:00,
2013-07-15 23:15:00,69.5,67.7,30.20,SSW,213,1.0,1.0,94,0.00,,,0.00,Wunderground v.1.15,2013-07-16 03:15:00,
2013-07-15 23:20:00,69.4,67.6,30.20,SSW,213,1.0,1.0,94,0.00,,,0.00,Wunderground v.1.15,2013-07-16 03:20:00,
2013-07-15 23:25:00,69.4,67.6,30.20,SSW,213,1.0,1.0,94,0.00,,,0.00,Wunderground v.1.15,2013-07-16 03:25:00,
2013-07-15 23:30:00,69.4,67.6,30.20,SSW,213,1.0,1.0,94,0.00,,,0.00,Wunderground v.1.15,2013-07-16 03:30:00,
2013-07-15 23:35:00,69.4,67.6,30.20,SSW,213,1.0,1.0,94,0.00,,,0.00,Wunderground v.1.15,2013-07-16 03:35:00,
2013-07-15 23:40:00,69.3,67.5,30.20,SSW,213,1.0,1.0,94,0.00,,,0.00,Wunderground v.1.15,2013-07-16 03:40:00,
2013-07-15 23:46:00,69.2,67.4,30.20,SSW,213,1.0,1.0,94,0.00,,,0.00,Wunderground v.1.15,2013-07-16 03:46:00,
2013-07-15 23:51:00,69.1,67.3,30.20,SSW,213,1.0,1.0,94,0.00,,,0.00,Wunderground v.1.15,2013-07-16 03:51:00,
2013-07-15 23:56:00,69.0,67.2,30.20,SSW,213,1.0,1.0,94,0.00,,,0.00,Wunderground v.1.15,2013-07-16 03:56:00,